createdAt,value
2022-08-19T00:01:53.461Z,99694.31
2022-08-19T00:04:24.357Z,99704.81
2022-08-19T00:06:53.071Z,99694.97
2022-08-19T00:09:22.875Z,99700.06
2022-08-19T00:11:51.319Z,99693.97
2022-08-19T00:14:21.583Z,99689.94
2022-08-19T00:16:52.447Z,99689.25
2022-08-19T00:19:20.590Z,99693.31
2022-08-19T00:21:48.887Z,99689.75
2022-08-19T00:24:17.474Z,99690.28
2022-08-19T00:26:47.489Z,99686.06
2022-08-19T00:29:19.611Z,99698.59
2022-08-19T00:31:48.648Z,99694.19
2022-08-19T00:34:22.505Z,99691.97
2022-08-19T00:36:51.276Z,99698.06
2022-08-19T00:39:20.096Z,99700.81
2022-08-19T00:41:49.909Z,99699.75
2022-08-19T00:44:21.414Z,99689.75
2022-08-19T00:46:58.391Z,99689.63
2022-08-19T00:49:33.807Z,99687.75
2022-08-19T00:52:06.724Z,99678.91
2022-08-19T00:54:35.188Z,99677.75
2022-08-19T00:57:04.159Z,99676.56
2022-08-19T00:59:56.244Z,99674.19
2022-08-19T01:02:20.594Z,99680.81
2022-08-19T01:04:50.680Z,99676.56
2022-08-19T01:07:19.859Z,99674.03
2022-08-19T01:09:48.709Z,99681.81
2022-08-19T01:12:18.091Z,99682.84
2022-08-19T01:14:47.471Z,99688.25
2022-08-19T01:17:17.252Z,99679.78
2022-08-19T01:19:47.781Z,99673.03
2022-08-19T01:22:30.233Z,99665.91
2022-08-19T01:25:03.481Z,99668.63
2022-08-19T01:27:43.313Z,99663.84
2022-08-19T01:30:15.355Z,99670.47
2022-08-19T01:32:44.354Z,99668.94
2022-08-19T01:35:14.518Z,99665.75
2022-08-19T01:37:52.893Z,99656.94
2022-08-19T01:40:24.726Z,99657.28
2022-08-19T01:42:54.391Z,99659.47
2022-08-19T01:45:26.001Z,99658.78
2022-08-19T01:48:02.132Z,99658.25
2022-08-19T01:50:31.537Z,99645.59
2022-08-19T01:53:03.594Z,99650.50
2022-08-19T01:55:40.846Z,99641.88
2022-08-19T01:58:16.070Z,99630.00
2022-08-19T02:00:46.234Z,99637.66
2022-08-19T02:03:14.838Z,99631.72
2022-08-19T02:05:43.547Z,99636.28
2022-08-19T02:08:13.083Z,99620.69
2022-08-19T02:10:45.258Z,99624.09
2022-08-19T02:13:15.091Z,99617.50
2022-08-19T02:15:43.545Z,99617.84
2022-08-19T02:18:12.030Z,99618.69
2022-08-19T02:20:41.618Z,99621.06
2022-08-19T02:23:13.471Z,99622.25
2022-08-19T02:25:45.373Z,99617.84
2022-08-19T02:28:17.933Z,99609.53
2022-08-19T02:30:47.956Z,99596.84
2022-08-19T02:33:16.268Z,99602.13
2022-08-19T02:35:45.369Z,99617.66
2022-08-19T02:38:28.958Z,99626.63
2022-08-19T02:41:01.472Z,99615.31
2022-08-19T02:43:33.687Z,99630.69
2022-08-19T02:46:02.247Z,99623.53
2022-08-19T02:48:31.105Z,99630.66
2022-08-19T02:50:59.250Z,99634.38
2022-08-19T02:53:30.081Z,99627.63
2022-08-19T02:55:59.893Z,99640.97
2022-08-19T02:58:28.791Z,99653.31
2022-08-19T03:00:58.607Z,99653.66
2022-08-19T03:03:27.075Z,99646.84
2022-08-19T03:06:06.206Z,99633.78
2022-08-19T03:08:34.376Z,99636.97
2022-08-19T03:11:04.098Z,99647.47
2022-08-19T03:13:32.232Z,99646.47
2022-08-19T03:16:00.502Z,99644.00
2022-08-19T03:18:28.590Z,99659.00
2022-08-19T03:20:56.990Z,99668.13
2022-08-19T03:23:26.005Z,99674.88
2022-08-19T03:26:03.042Z,99663.22
2022-08-19T03:28:47.744Z,99663.50
2022-08-19T03:31:44.900Z,99663.44
2022-08-19T03:34:13.403Z,99664.09
2022-08-19T03:36:41.733Z,99664.88
2022-08-19T03:39:10.483Z,99676.25
2022-08-19T03:41:44.599Z,99663.44
2022-08-19T03:44:17.807Z,99667.44
2022-08-19T03:46:47.569Z,99665.72
2022-08-19T03:49:15.845Z,99681.59
2022-08-19T03:51:46.674Z,99682.63
2022-08-19T03:54:17.026Z,99686.06
2022-08-19T03:56:47.746Z,99682.22
2022-08-19T03:59:20.915Z,99696.56
2022-08-19T04:01:49.307Z,99686.69
2022-08-19T04:04:17.406Z,99683.34
2022-08-19T04:06:48.914Z,99684.50
2022-08-19T04:09:17.800Z,99682.09
2022-08-19T04:11:48.554Z,99701.53
2022-08-19T04:14:20.605Z,99704.41
2022-08-19T04:16:50.065Z,99701.94
2022-08-19T04:19:20.772Z,99711.38
2022-08-19T04:21:51.996Z,99717.47
2022-08-19T04:24:21.543Z,99708.88
2022-08-19T04:26:50.339Z,99694.63
2022-08-19T04:29:25.886Z,99696.81
2022-08-19T04:31:55.614Z,99706.78
2022-08-19T04:34:26.406Z,99711.09
2022-08-19T04:36:56.391Z,99715.78
2022-08-19T04:39:47.249Z,99723.75
2022-08-19T04:42:34.209Z,99722.03
2022-08-19T04:45:05.380Z,99719.28
2022-08-19T04:47:46.885Z,99722.28
2022-08-19T04:50:19.619Z,99711.53
2022-08-19T04:52:47.905Z,99707.53
2022-08-19T04:55:16.107Z,99713.00
2022-08-19T04:57:44.249Z,99723.03
2022-08-19T05:00:14.792Z,99715.13
2022-08-19T05:02:42.966Z,99717.66
2022-08-19T05:05:11.146Z,99724.00
2022-08-19T05:07:41.078Z,99719.94
2022-08-19T05:10:09.679Z,99721.38
2022-08-19T05:12:37.996Z,99724.81
2022-08-19T05:15:09.591Z,99723.63
2022-08-19T05:17:39.441Z,99720.84
2022-08-19T05:20:27.375Z,99724.56
2022-08-19T05:22:55.854Z,99719.22
2022-08-19T05:25:26.607Z,99718.41
2022-08-19T05:27:54.756Z,99715.19
2022-08-19T05:30:33.501Z,99715.69
2022-08-19T05:33:13.216Z,99710.81
2022-08-19T05:35:42.086Z,99714.22
2022-08-19T05:38:10.388Z,99728.63
2022-08-19T05:40:39.259Z,99723.38
2022-08-19T05:43:09.069Z,99723.03
2022-08-19T05:45:43.092Z,99717.81
2022-08-19T05:48:13.163Z,99718.03
2022-08-19T05:50:42.560Z,99719.38
2022-08-19T05:53:10.927Z,99720.72
2022-08-19T05:55:40.695Z,99722.44
2022-08-19T05:58:09.263Z,99723.47
2022-08-19T06:00:37.571Z,99727.03
2022-08-19T06:03:11.795Z,99723.47
2022-08-19T06:05:50.391Z,99722.78
2022-08-19T06:08:34.360Z,99716.03
2022-08-19T06:11:18.167Z,99718.56
2022-08-19T06:13:51.762Z,99719.75
2022-08-19T06:16:23.237Z,99724.16
2022-08-19T06:18:53.611Z,99723.13
2022-08-19T06:21:25.175Z,99728.06
2022-08-19T06:23:54.115Z,99723.47
2022-08-19T06:26:23.339Z,99718.88
2022-08-19T06:28:51.413Z,99714.47
2022-08-19T06:31:21.979Z,99705.78
2022-08-19T06:33:50.778Z,99697.34
2022-08-19T06:36:21.364Z,99697.28
2022-08-19T06:38:54.802Z,99706.06
2022-08-19T06:41:23.059Z,99701.34
2022-08-19T06:43:54.059Z,99713.50
2022-08-19T06:46:24.626Z,99706.66
2022-08-19T06:48:54.477Z,99698.13
2022-08-19T06:51:25.098Z,99705.72
2022-08-19T06:53:57.082Z,99701.47
2022-08-19T06:56:32.000Z,99701.94
2022-08-19T06:59:01.042Z,99704.78
2022-08-19T07:01:29.269Z,99714.38
2022-08-19T07:03:58.432Z,99720.28
2022-08-19T07:06:43.760Z,99717.06
2022-08-19T07:09:18.592Z,99728.50
2022-08-19T07:11:51.160Z,99732.19
2022-08-19T07:14:21.546Z,99737.59
2022-08-19T07:16:52.463Z,99740.41
2022-08-19T07:19:22.116Z,99734.13
2022-08-19T07:21:53.810Z,99736.63
2022-08-19T07:24:25.869Z,99739.63
2022-08-19T07:26:55.770Z,99736.19
2022-08-19T07:29:25.825Z,99740.69
2022-08-19T07:32:00.227Z,99744.84
2022-08-19T07:34:31.459Z,99744.41
2022-08-19T07:37:01.977Z,99735.22
2022-08-19T07:39:37.587Z,99735.59
2022-08-19T07:42:08.969Z,99727.84
2022-08-19T07:47:49.907Z,99721.94
2022-08-19T07:49:59.464Z,99727.56
2022-08-19T07:52:27.707Z,99719.97
2022-08-19T07:54:57.234Z,99727.94
2022-08-19T07:57:25.356Z,99725.47
2022-08-19T07:59:53.501Z,99733.25
2022-08-19T08:02:21.606Z,99731.41
2022-08-19T08:05:07.094Z,99724.22
2022-08-19T08:07:53.076Z,99725.25
2022-08-19T08:10:24.259Z,99729.31
2022-08-19T08:13:09.608Z,99733.38
2022-08-19T08:15:42.981Z,99734.06
2022-08-19T08:18:12.108Z,99731.00
2022-08-19T08:20:41.087Z,99729.44
2022-08-19T08:23:26.168Z,99732.94
2022-08-19T08:25:58.025Z,99738.38
2022-08-19T08:28:29.777Z,99729.66
2022-08-19T08:30:59.795Z,99729.41
2022-08-19T08:33:33.774Z,99729.72
2022-08-19T08:36:04.235Z,99732.28
2022-08-19T08:38:39.667Z,99730.03
2022-08-19T08:41:29.156Z,99724.09
2022-08-19T08:43:59.178Z,99728.97
2022-08-19T08:46:34.126Z,99726.25
2022-08-19T08:49:09.930Z,99714.50
2022-08-19T08:51:44.078Z,99703.34
2022-08-19T08:54:18.093Z,99704.81
2022-08-19T08:56:51.638Z,99702.94
2022-08-19T08:59:25.282Z,99707.75
2022-08-19T09:01:53.551Z,99715.13
2022-08-19T09:04:23.862Z,99717.28
2022-08-19T09:07:00.765Z,99708.91
2022-08-19T09:09:33.613Z,99703.88
2022-08-19T09:12:11.826Z,99707.91
2022-08-19T09:14:50.680Z,99710.66
2022-08-19T09:17:20.689Z,99712.13
2022-08-19T09:19:57.937Z,99702.28
2022-08-19T09:22:27.776Z,99706.09
2022-08-19T09:24:56.919Z,99705.88
2022-08-19T09:27:43.165Z,99705.47
2022-08-19T09:30:16.096Z,99689.69
2022-08-19T09:32:45.621Z,99689.06
2022-08-19T09:35:15.457Z,99679.81
2022-08-19T09:37:44.457Z,99685.06
2022-08-19T09:40:14.115Z,99687.38
2022-08-19T09:42:49.959Z,99684.00
2022-08-19T09:45:22.405Z,99668.84
2022-08-19T09:47:53.865Z,99673.50
2022-08-19T09:50:24.337Z,99680.81
2022-08-19T09:52:57.797Z,99669.88
2022-08-19T09:55:31.920Z,99664.13
2022-08-19T09:58:06.014Z,99660.59
2022-08-19T10:00:34.463Z,99650.44
2022-08-19T10:03:02.607Z,99658.66
2022-08-19T10:05:48.921Z,99656.09
2022-08-19T10:08:18.767Z,99657.53
2022-08-19T10:10:50.332Z,99662.38
2022-08-19T10:13:24.596Z,99661.47
2022-08-19T10:15:54.281Z,99656.22
2022-08-19T10:18:25.148Z,99646.09
2022-08-19T10:20:55.994Z,99651.34
2022-08-19T10:23:24.143Z,99656.75
2022-08-19T10:25:54.609Z,99649.38
2022-08-19T10:28:25.063Z,99645.56
2022-08-19T10:30:54.286Z,99643.16
2022-08-19T10:33:38.769Z,99646.22
2022-08-19T10:36:16.058Z,99648.28
2022-08-19T10:38:52.327Z,99642.81
2022-08-19T10:41:26.283Z,99651.44
2022-08-19T10:43:57.533Z,99639.63
2022-08-19T10:46:33.613Z,99650.66
2022-08-19T10:49:02.577Z,99649.59
2022-08-19T10:51:48.741Z,99643.66
2022-08-19T10:54:22.317Z,99645.22
2022-08-19T10:56:59.356Z,99637.75
2022-08-19T10:59:35.783Z,99647.19
2022-08-19T11:02:06.804Z,99649.41
2022-08-19T11:04:35.850Z,99649.09
2022-08-19T11:07:04.822Z,99644.56
2022-08-19T11:09:34.479Z,99642.50
2022-08-19T11:12:05.052Z,99641.97
2022-08-19T11:14:35.587Z,99639.66
2022-08-19T11:17:05.069Z,99640.25
2022-08-19T11:19:34.155Z,99638.97
2022-08-19T11:22:04.421Z,99634.84
2022-08-19T11:24:33.842Z,99642.88
2022-08-19T11:27:07.623Z,99641.06
2022-08-19T11:29:38.203Z,99638.47
2022-08-19T11:32:07.670Z,99628.72
2022-08-19T11:34:36.442Z,99637.03
2022-08-19T11:37:06.717Z,99636.75
2022-08-19T11:39:37.951Z,99636.47
2022-08-19T11:42:28.109Z,99632.94
2022-08-19T11:44:57.850Z,99628.41
2022-08-19T11:47:27.300Z,99629.03
2022-08-19T11:49:55.443Z,99623.63
2022-08-19T11:52:23.585Z,99638.97
2022-08-19T11:54:51.703Z,99627.59
2022-08-19T11:57:20.757Z,99618.47
2022-08-19T11:59:54.382Z,99618.25
2022-08-19T12:02:24.380Z,99615.47
2022-08-19T12:04:52.517Z,99620.75
2022-08-19T12:07:20.590Z,99618.59
2022-08-19T12:09:48.886Z,99620.84
2022-08-19T12:12:17.188Z,99625.66
2022-08-19T12:14:45.475Z,99621.50
2022-08-19T12:17:14.373Z,99624.72
2022-08-19T12:19:43.992Z,99624.94
2022-08-19T12:22:12.160Z,99627.84
2022-08-19T12:24:40.284Z,99625.53
2022-08-19T12:27:12.543Z,99625.16
2022-08-19T12:29:42.507Z,99629.72
2022-08-19T12:32:12.090Z,99622.09
2022-08-19T12:34:41.037Z,99629.75
2022-08-19T12:37:11.993Z,99617.72
2022-08-19T12:39:43.526Z,99609.56
2022-08-19T12:42:12.559Z,99606.34
2022-08-19T12:44:42.715Z,99602.44
2022-08-19T12:47:13.264Z,99600.47
2022-08-19T12:49:54.670Z,99592.38
2022-08-19T12:52:28.104Z,99594.16
2022-08-19T12:54:58.474Z,99587.66
2022-08-19T12:57:32.950Z,99580.38
2022-08-19T13:00:05.809Z,99581.53
2022-08-19T13:02:38.245Z,99590.44
2022-08-19T13:05:09.226Z,99592.91
2022-08-19T13:07:39.562Z,99584.38
2022-08-19T13:10:09.876Z,99585.16
2022-08-19T13:12:38.324Z,99592.00
2022-08-19T13:15:10.768Z,99576.03
2022-08-19T13:17:40.907Z,99580.63
2022-08-19T13:20:11.076Z,99577.34
2022-08-19T13:22:40.859Z,99579.44
2022-08-19T13:25:10.470Z,99569.69
2022-08-19T13:27:39.488Z,99577.53
2022-08-19T13:30:27.955Z,99573.72
2022-08-19T13:33:15.953Z,99576.75
2022-08-19T13:35:48.110Z,99582.31
2022-08-19T13:38:21.477Z,99573.88
2022-08-19T13:40:51.325Z,99572.97
2022-08-19T13:43:22.928Z,99575.72
2022-08-19T13:45:57.433Z,99576.19
2022-08-19T13:48:28.012Z,99568.00
2022-08-19T13:50:56.773Z,99567.69
2022-08-19T13:53:26.364Z,99565.16
2022-08-19T13:55:54.990Z,99585.91
2022-08-19T13:58:23.707Z,99583.94
2022-08-19T14:00:52.054Z,99595.09
2022-08-19T14:03:20.288Z,99587.44
2022-08-19T14:05:48.776Z,99580.25
2022-08-19T14:08:16.915Z,99612.41
2022-08-19T14:10:46.979Z,99583.00
2022-08-19T14:13:17.429Z,99575.00
2022-08-19T14:15:45.740Z,99568.66
2022-08-19T14:18:14.044Z,99575.44
2022-08-19T14:20:42.501Z,99568.28
2022-08-19T14:23:11.740Z,99564.31
2022-08-19T14:25:39.808Z,99582.84
2022-08-19T14:28:09.572Z,99568.59
2022-08-19T14:30:39.254Z,99557.03
2022-08-19T14:33:09.385Z,99561.09
2022-08-19T14:35:38.163Z,99566.66
2022-08-19T14:38:07.558Z,99562.03
2022-08-19T14:40:35.895Z,99570.22
2022-08-19T14:43:06.488Z,99566.59
2022-08-19T14:45:38.806Z,99580.13
2022-08-19T14:48:17.823Z,99571.84
2022-08-19T14:50:48.907Z,99578.78
2022-08-19T14:53:18.317Z,99565.72
2022-08-19T14:55:47.796Z,99581.72
2022-08-19T14:58:29.755Z,99597.31
2022-08-19T15:01:01.170Z,99602.81
2022-08-19T15:03:30.265Z,99601.97
2022-08-19T15:05:58.936Z,99621.09
2022-08-19T15:08:28.863Z,99620.50
2022-08-19T15:10:57.888Z,99615.22
2022-08-19T15:13:27.215Z,99626.97
2022-08-19T15:15:56.251Z,99633.91
2022-08-19T15:18:26.154Z,99639.19
2022-08-19T15:20:54.428Z,99651.19
2022-08-19T15:23:23.432Z,99656.00
2022-08-19T15:25:54.443Z,99651.59
2022-08-19T15:28:22.804Z,99652.78
2022-08-19T15:30:52.395Z,99660.19
2022-08-19T15:33:21.219Z,99672.53
2022-08-19T15:35:52.092Z,99659.78
2022-08-19T15:38:22.382Z,99649.63
2022-08-19T15:40:51.411Z,99637.66
2022-08-19T15:43:21.801Z,99630.69
2022-08-19T15:45:50.290Z,99598.88
2022-08-19T15:48:18.498Z,99600.28
2022-08-19T15:50:46.663Z,99608.75
2022-08-19T15:53:16.196Z,99610.47
2022-08-19T15:55:48.602Z,99606.28
2022-08-19T15:58:34.643Z,99606.50
2022-08-19T16:01:22.246Z,99615.34
2022-08-19T16:04:14.732Z,99611.16
2022-08-19T16:06:45.875Z,99601.88
2022-08-19T16:09:17.313Z,99605.03
2022-08-19T16:11:46.541Z,99584.44
2022-08-19T16:14:15.435Z,99592.00
2022-08-19T16:16:47.220Z,99588.03
2022-08-19T16:19:17.261Z,99582.16
2022-08-19T16:21:46.956Z,99590.75
2022-08-19T16:24:19.009Z,99601.97
2022-08-19T16:26:48.228Z,99617.50
2022-08-19T16:29:22.033Z,99620.44
2022-08-19T16:32:02.958Z,99621.47
2022-08-19T16:34:31.573Z,99618.72
2022-08-19T16:36:59.673Z,99640.34
2022-08-19T16:39:29.203Z,99653.28
2022-08-19T16:41:57.394Z,99674.84
2022-08-19T16:44:29.891Z,99684.59
2022-08-19T16:46:59.545Z,99686.19
2022-08-19T16:49:53.779Z,99710.34
2022-08-19T16:52:18.144Z,99703.78
2022-08-19T16:54:48.606Z,99706.66
2022-08-19T16:57:16.936Z,99716.34
2022-08-19T16:59:48.975Z,99735.31
2022-08-19T17:02:18.537Z,99741.59
2022-08-19T17:04:57.639Z,99728.34
2022-08-19T17:07:28.054Z,99739.44
2022-08-19T17:09:58.409Z,99730.75
2022-08-19T17:12:31.836Z,99715.16
2022-08-19T17:15:01.190Z,99658.44
2022-08-19T17:17:30.055Z,99629.47
2022-08-19T17:19:59.098Z,99621.03
2022-08-19T17:22:27.439Z,99610.91
2022-08-19T17:24:58.337Z,99595.34
2022-08-19T17:27:32.466Z,99584.22
2022-08-19T17:30:02.592Z,99560.19
2022-08-19T17:32:34.352Z,99562.50
2022-08-19T17:35:04.747Z,99562.78
2022-08-19T17:37:34.207Z,99565.31
2022-08-19T17:40:05.421Z,99543.66
2022-08-19T17:42:33.683Z,99532.53
2022-08-19T17:45:02.365Z,99516.22
2022-08-19T17:47:31.310Z,99501.13
2022-08-19T17:49:59.503Z,99501.31
2022-08-19T17:52:27.953Z,99491.75
2022-08-19T17:54:56.452Z,99508.53
2022-08-19T17:57:26.550Z,99521.22
2022-08-19T17:59:55.420Z,99535.72
2022-08-19T18:02:24.870Z,99555.91
2022-08-19T18:04:53.612Z,99578.88
2022-08-19T18:07:22.473Z,99602.38
2022-08-19T18:09:52.842Z,99661.09
2022-08-19T18:12:25.012Z,99723.28
2022-08-19T18:14:54.744Z,99776.38
2022-08-19T18:17:23.678Z,99767.50
2022-08-19T18:19:51.779Z,99729.22
2022-08-19T18:22:26.767Z,99721.69
2022-08-19T18:24:55.324Z,99761.97
2022-08-19T18:27:23.694Z,99799.25
2022-08-19T18:29:51.977Z,99820.75
2022-08-19T18:32:24.025Z,99844.16
2022-08-19T18:34:53.229Z,99878.16
2022-08-19T18:37:22.273Z,99903.28
2022-08-19T18:40:07.739Z,99900.56
2022-08-19T18:42:54.431Z,99918.53
2022-08-19T18:45:43.574Z,99911.75
2022-08-19T18:48:31.311Z,99908.66
2022-08-19T18:51:01.482Z,99889.94
2022-08-19T18:53:33.429Z,99896.38
2022-08-19T18:56:01.622Z,99878.38
2022-08-19T18:58:34.281Z,99866.66
2022-08-19T19:01:11.155Z,99839.47
2022-08-19T19:03:45.389Z,99818.22
2022-08-19T19:06:14.346Z,99795.31
2022-08-19T19:08:42.914Z,99773.81
2022-08-19T19:11:11.099Z,99781.00
2022-08-19T19:13:41.045Z,99781.00
2022-08-19T19:16:11.630Z,99755.03
2022-08-19T19:18:41.486Z,99742.56
2022-08-19T19:21:10.366Z,99760.03
2022-08-19T19:23:41.029Z,99762.75
2022-08-19T19:26:10.573Z,99769.28
2022-08-19T19:28:44.362Z,99744.13
2022-08-19T19:31:15.037Z,99757.88
2022-08-19T19:33:45.613Z,99735.06
2022-08-19T19:36:14.117Z,99707.41
2022-08-19T19:38:48.232Z,99686.72
2022-08-19T19:41:19.787Z,99678.22
2022-08-19T19:43:59.919Z,99664.19
2022-08-19T19:46:42.438Z,99635.94
2022-08-19T19:49:12.801Z,99629.53
2022-08-19T19:51:41.422Z,99636.72
2022-08-19T19:54:13.918Z,99643.50
2022-08-19T19:56:43.400Z,99639.59
2022-08-19T19:59:14.558Z,99647.78
2022-08-19T20:01:46.889Z,99652.94
2022-08-19T20:04:17.744Z,99695.47
2022-08-19T20:06:47.121Z,99824.31
2022-08-19T20:09:19.655Z,99940.69
2022-08-19T20:11:53.466Z,99920.94
2022-08-19T20:14:23.626Z,99931.19
2022-08-19T20:16:53.847Z,99983.13
2022-08-19T20:19:26.897Z,99979.66
2022-08-19T20:21:57.521Z,99999.41
2022-08-19T20:24:32.483Z,99991.56
2022-08-19T20:27:00.927Z,99983.34
2022-08-19T20:29:38.763Z,99982.19
2022-08-19T20:32:09.048Z,99981.75
2022-08-19T20:34:39.399Z,100017.34
2022-08-19T20:37:10.581Z,100029.19
2022-08-19T20:39:39.241Z,100030.97
2022-08-19T20:42:07.626Z,100034.63
2022-08-19T20:44:36.141Z,100038.91
2022-08-19T20:47:04.434Z,100024.00
2022-08-19T20:49:33.008Z,100024.63
2022-08-19T20:52:03.803Z,100032.75
2022-08-19T20:54:32.296Z,100039.31
2022-08-19T20:57:00.715Z,100036.50
2022-08-19T20:59:28.992Z,100026.72
2022-08-19T21:01:57.591Z,100010.59
2022-08-19T21:04:26.802Z,100017.66
2022-08-19T21:06:57.130Z,100008.59
2022-08-19T21:09:27.139Z,100004.00
2022-08-19T21:11:55.261Z,99985.16
2022-08-19T21:14:23.880Z,99957.88
2022-08-19T21:16:52.087Z,99921.97
2022-08-19T21:19:23.896Z,99911.59
2022-08-19T21:21:52.585Z,99882.34
2022-08-19T21:24:20.708Z,99860.56
2022-08-19T21:26:51.422Z,99874.69
2022-08-19T21:29:20.375Z,99861.56
2022-08-19T21:31:49.040Z,99847.03
2022-08-19T21:34:17.226Z,99844.47
2022-08-19T21:36:45.577Z,99856.41
2022-08-19T21:39:13.800Z,99870.09
2022-08-19T21:41:43.689Z,99866.75
2022-08-19T21:44:13.527Z,99830.25
2022-08-19T21:46:41.784Z,99805.56
2022-08-19T21:49:09.920Z,99794.25
2022-08-19T21:51:38.468Z,99786.59
2022-08-19T21:54:06.647Z,99766.09
2022-08-19T21:56:35.114Z,99745.16
2022-08-19T21:59:03.195Z,99738.22
2022-08-19T22:01:32.765Z,99750.69
2022-08-19T22:04:01.051Z,99751.13
2022-08-19T22:06:29.211Z,99747.91
2022-08-19T22:08:57.380Z,99743.13
2022-08-19T22:11:26.426Z,99741.16
2022-08-19T22:13:56.523Z,99730.94
2022-08-19T22:16:25.621Z,99694.13
2022-08-19T22:18:55.157Z,99690.00
2022-08-19T22:21:29.386Z,99696.75
2022-08-19T22:24:10.005Z,99699.00
2022-08-19T22:26:38.143Z,99692.50
2022-08-19T22:29:06.424Z,99689.94
2022-08-19T22:31:34.551Z,99678.22
2022-08-19T22:34:05.370Z,99668.19
2022-08-19T22:36:34.170Z,99673.13
2022-08-19T22:39:02.498Z,99657.25
2022-08-19T22:41:33.372Z,99652.59
2022-08-19T22:44:01.852Z,99640.56
2022-08-19T22:46:30.013Z,99644.09
2022-08-19T22:49:01.681Z,99642.56
2022-08-19T22:51:48.800Z,99638.34
2022-08-19T22:54:17.152Z,99641.34
2022-08-19T22:56:45.345Z,99627.34
2022-08-19T22:59:13.571Z,99627.66
2022-08-19T23:01:42.173Z,99627.63
2022-08-19T23:04:10.879Z,99622.66
2022-08-19T23:06:42.180Z,99621.53
2022-08-19T23:09:16.605Z,99623.53
2022-08-19T23:11:45.696Z,99628.91
2022-08-19T23:14:14.679Z,99637.09
2022-08-19T23:16:50.417Z,99635.66
2022-08-19T23:19:19.661Z,99654.19
2022-08-19T23:21:49.741Z,99639.19
2022-08-19T23:24:18.115Z,99650.50
2022-08-19T23:27:00.195Z,99643.69
2022-08-19T23:29:45.983Z,99632.69
2022-08-19T23:32:16.274Z,99626.03
2022-08-19T23:34:45.824Z,99613.16
2022-08-19T23:37:16.533Z,99616.31
2022-08-19T23:39:45.371Z,99598.19
2022-08-19T23:42:13.730Z,99605.69
2022-08-19T23:44:51.654Z,99609.81
2022-08-19T23:47:21.355Z,99625.38
2022-08-19T23:49:49.797Z,99626.09
2022-08-19T23:52:19.557Z,99630.31
2022-08-19T23:54:48.045Z,99622.72
2022-08-19T23:57:16.407Z,99617.03
2022-08-19T23:59:46.258Z,99619.72
